Time;durP1;ratioP1;P1;durP2;ratioP2;P2;SDS_P1;SDS_P2;PMS_P1;PMS_P2;Temp;Humidity;BMP_temperature;BMP_pressure;BME280_temperature;BME280_humidity;BME280_pressure;Samples;Min_cycle;Max_cycle;Signal;HPM_P1;HPM_P2
2023/12/14 00:01:45;;;;;;;17.80;16.70;;;7.60;1.00;;;;;;5052593;28;20523;-78
2023/12/14 00:04:14;;;;;;;14.70;14.00;;;7.50;1.00;;;;;;5050285;28;21103;-78
2023/12/14 00:06:42;;;;;;;14.33;13.83;;;7.60;1.00;;;;;;5050814;28;20475;-78
2023/12/14 00:09:10;;;;;;;14.70;14.00;;;7.50;1.00;;;;;;5050504;28;21197;-79
2023/12/14 00:11:39;;;;;;;13.97;13.33;;;7.50;29.30;;;;;;5049305;28;21367;-79
2023/12/14 00:14:09;;;;;;;15.73;15.07;;;7.60;1.00;;;;;;5053985;28;21035;-80
2023/12/14 00:16:37;;;;;;;17.33;16.23;;;7.60;1.00;;;;;;5051876;28;20452;-79
2023/12/14 00:19:06;;;;;;;16.63;15.23;;;7.60;1.00;;;;;;5049720;28;20451;-79
2023/12/14 00:21:34;;;;;;;16.80;15.90;;;7.60;99.90;;;;;;5050156;28;20455;-80
2023/12/14 00:24:02;;;;;;;16.63;15.67;;;7.60;99.90;;;;;;5051009;28;20517;-79
2023/12/14 00:26:30;;;;;;;14.90;14.10;;;7.60;1.00;;;;;;5050135;28;20467;-79
2023/12/14 00:28:58;;;;;;;15.43;14.77;;;7.60;1.00;;;;;;5048931;28;20539;-79
2023/12/14 00:31:30;;;;;;;12.40;11.90;;;7.70;99.90;;;;;;5051538;28;21423;-79
2023/12/14 00:33:59;;;;;;;13.60;13.20;;;7.70;1.00;;;;;;5047819;28;22139;-79
2023/12/14 00:36:27;;;;;;;11.60;11.40;;;7.80;99.90;;;;;;5045402;28;20922;-77
2023/12/14 00:38:56;;;;;;;11.63;11.43;;;7.80;99.90;;;;;;5044179;28;20463;-77
2023/12/14 00:41:25;;;;;;;11.80;11.43;;;7.80;99.90;;;;;;5049279;28;21090;-78
2023/12/14 00:43:53;;;;;;;11.70;11.40;;;7.80;99.90;;;;;;5042400;28;20824;-78
2023/12/14 00:46:22;;;;;;;12.10;11.80;;;7.80;99.90;;;;;;5051656;28;21070;-78
2023/12/14 00:48:51;;;;;;;11.90;11.60;;;7.90;99.90;;;;;;5046314;28;20544;-79
2023/12/14 00:51:19;;;;;;;12.00;11.70;;;7.80;99.90;;;;;;5049402;28;20543;-78
2023/12/14 00:53:47;;;;;;;11.97;11.60;;;7.90;99.90;;;;;;5049130;28;20479;-78
2023/12/14 00:56:16;;;;;;;11.80;11.50;;;7.80;99.90;;;;;;5042941;28;20459;-78
2023/12/14 00:58:47;;;;;;;11.90;11.60;;;7.80;99.90;;;;;;5049225;28;20455;-78
2023/12/14 01:01:15;;;;;;;11.70;11.50;;;7.80;99.90;;;;;;5050754;28;20511;-78
2023/12/14 01:03:43;;;;;;;12.53;12.23;;;7.80;99.90;;;;;;5045740;28;20460;-78
2023/12/14 01:06:13;;;;;;;13.10;12.80;;;7.80;1.00;;;;;;5049311;28;20834;-78
2023/12/14 01:08:41;;;;;;;12.63;12.40;;;7.80;99.90;;;;;;5050015;28;20562;-78
2023/12/14 01:11:10;;;;;;;12.67;12.33;;;7.80;1.00;;;;;;5046281;28;20485;-78
2023/12/14 01:13:38;;;;;;;13.40;13.10;;;7.70;1.00;;;;;;5053900;28;20462;-80
2023/12/14 01:16:07;;;;;;;14.30;13.70;;;7.80;99.90;;;;;;5051771;28;20447;-79
2023/12/14 01:18:35;;;;;;;13.30;12.90;;;7.70;99.90;;;;;;5051914;28;20986;-78
2023/12/14 01:21:04;;;;;;;12.57;12.27;;;7.70;1.00;;;;;;5056676;28;20484;-79
2023/12/14 01:23:34;;;;;;;13.60;13.20;;;7.80;99.90;;;;;;5055184;28;20542;-79
2023/12/14 01:26:02;;;;;;;13.70;13.30;;;7.70;99.90;;;;;;5058882;28;20452;-79
2023/12/14 01:28:30;;;;;;;15.77;15.13;;;7.70;99.90;;;;;;5053590;28;20480;-80
2023/12/14 01:30:59;;;;;;;14.87;14.27;;;7.70;99.90;;;;;;5050787;28;20526;-78
2023/12/14 01:33:28;;;;;;;14.10;13.60;;;7.70;99.90;;;;;;5056127;28;20455;-78
2023/12/14 01:35:56;;;;;;;13.13;12.83;;;7.80;1.00;;;;;;5054951;28;20460;-78
2023/12/14 01:38:24;;;;;;;14.03;13.33;;;7.70;1.00;;;;;;5056137;28;20539;-78
2023/12/14 01:40:55;;;;;;;15.90;15.00;;;7.70;99.90;;;;;;5052711;28;21075;-78
2023/12/14 01:43:24;;;;;;;14.63;14.07;;;7.70;1.00;;;;;;5051360;28;20570;-78
2023/12/14 01:45:52;;;;;;;14.40;13.90;;;7.70;1.00;;;;;;5053979;28;20451;-79
2023/12/14 01:48:20;;;;;;;14.83;14.33;;;7.70;1.00;;;;;;5051669;28;20478;-78
2023/12/14 01:50:48;;;;;;;15.50;14.90;;;7.60;1.00;;;;;;5052735;28;20486;-79
2023/12/14 01:53:16;;;;;;;13.77;13.30;;;7.60;1.00;;;;;;5046532;28;20539;-78
2023/12/14 01:55:44;;;;;;;12.30;12.00;;;7.60;99.90;;;;;;5048569;28;20451;-78
2023/12/14 01:58:14;;;;;;;14.90;14.30;;;7.70;1.00;;;;;;5046384;28;21120;-78
2023/12/14 02:00:50;;;;;;;13.10;12.80;;;7.70;1.00;;;;;;5053241;28;20475;-78
2023/12/14 02:03:18;;;;;;;13.23;12.83;;;7.70;1.00;;;;;;5050536;28;20452;-79
2023/12/14 02:05:47;;;;;;;13.33;12.97;;;7.70;1.00;;;;;;5052757;28;20456;-78
2023/12/14 02:08:15;;;;;;;12.93;12.63;;;7.70;99.90;;;;;;5051307;28;20471;-78
2023/12/14 02:10:43;;;;;;;12.73;12.47;;;7.80;99.90;;;;;;5048994;28;21190;-78
2023/12/14 02:13:11;;;;;;;14.40;13.80;;;7.80;99.90;;;;;;5051551;28;20470;-78
2023/12/14 02:15:41;;;;;;;13.30;13.00;;;7.80;99.90;;;;;;5052083;28;20554;-79
2023/12/14 02:18:09;;;;;;;13.73;13.33;;;7.80;99.90;;;;;;5049305;28;20464;-79
2023/12/14 02:20:37;;;;;;;13.47;13.17;;;7.80;1.00;;;;;;5051063;28;20476;-78
2023/12/14 02:23:07;;;;;;;14.00;13.60;;;7.80;99.90;;;;;;5051576;28;20456;-78
2023/12/14 02:25:36;;;;;;;15.73;15.23;;;7.70;1.00;;;;;;5051413;28;20444;-78
2023/12/14 02:28:04;;;;;;;13.60;13.20;;;7.80;1.00;;;;;;5048481;28;20490;-79
2023/12/14 02:30:32;;;;;;;13.57;13.27;;;7.80;99.90;;;;;;5050341;28;20475;-78
2023/12/14 02:33:00;;;;;;;14.43;13.73;;;7.70;1.00;;;;;;5050331;28;20439;-78
2023/12/14 02:35:29;;;;;;;14.23;13.67;;;7.70;1.00;;;;;;5052729;28;20458;-79
2023/12/14 02:37:57;;;;;;;13.47;13.17;;;7.70;99.90;;;;;;5051552;28;20454;-78
2023/12/14 02:40:27;;;;;;;13.37;13.07;;;7.70;99.90;;;;;;5053037;28;20471;-78
2023/12/14 02:42:55;;;;;;;13.53;13.20;;;7.60;1.00;;;;;;5052758;28;20464;-78
2023/12/14 02:45:23;;;;;;;14.10;13.70;;;7.70;99.90;;;;;;5051601;28;20440;-79
2023/12/14 02:47:54;;;;;;;14.20;13.80;;;7.70;7.00;;;;;;5048834;28;20476;-79
2023/12/14 02:50:22;;;;;;;13.97;13.57;;;7.70;1.00;;;;;;5050700;28;20479;-78
2023/12/14 02:52:51;;;;;;;13.83;13.43;;;7.80;1.00;;;;;;5053206;28;20447;-79
2023/12/14 02:55:19;;;;;;;13.80;13.40;;;7.70;1.00;;;;;;5054110;28;20456;-79
2023/12/14 02:57:48;;;;;;;15.00;14.60;;;7.70;99.90;;;;;;5052219;28;20871;-79
2023/12/14 03:00:17;;;;;;;14.87;14.20;;;7.70;1.00;;;;;;5049415;28;20476;-80
2023/12/14 03:02:45;;;;;;;14.67;14.27;;;7.80;99.90;;;;;;5051715;28;20453;-79
2023/12/14 03:05:14;;;;;;;14.70;14.30;;;7.80;1.00;;;;;;5053903;28;20542;-80
2023/12/14 03:07:42;;;;;;;14.20;13.80;;;7.80;1.00;;;;;;5049398;28;20451;-78
2023/12/14 03:10:11;;;;;;;14.00;13.60;;;7.70;1.00;;;;;;5049508;28;20468;-79
2023/12/14 03:12:39;;;;;;;15.13;14.60;;;7.80;1.00;;;;;;5044052;28;20500;-78
2023/12/14 03:15:09;;;;;;;14.70;14.27;;;7.80;99.90;;;;;;5048959;28;20457;-79
2023/12/14 03:17:37;;;;;;;15.27;14.70;;;7.70;1.00;;;;;;5052159;28;20464;-78
2023/12/14 03:20:07;;;;;;;13.80;13.50;;;7.70;99.90;;;;;;5043962;28;20491;-80
2023/12/14 03:22:35;;;;;;;14.67;14.17;;;7.70;99.90;;;;;;5043255;28;20461;-79
2023/12/14 03:25:04;;;;;;;14.30;13.90;;;7.70;99.90;;;;;;5052062;28;20451;-79
2023/12/14 03:27:33;;;;;;;14.30;13.80;;;7.80;99.90;;;;;;5049111;28;20451;-79
2023/12/14 03:30:01;;;;;;;14.90;14.40;;;7.80;1.00;;;;;;5048478;28;20482;-80
2023/12/14 03:32:30;;;;;;;14.90;14.50;;;7.80;99.90;;;;;;5048735;28;20466;-79
2023/12/14 03:34:59;;;;;;;15.27;14.67;;;7.90;1.00;;;;;;5050772;28;21069;-79
2023/12/14 03:37:27;;;;;;;15.30;14.80;;;7.80;1.00;;;;;;5047059;28;20518;-79
2023/12/14 03:39:55;;;;;;;14.93;14.50;;;7.70;99.90;;;;;;5050960;28;20466;-79
2023/12/14 03:42:23;;;;;;;14.80;14.30;;;7.80;1.00;;;;;;5046132;28;20459;-79
2023/12/14 03:44:51;;;;;;;15.27;14.70;;;7.80;99.90;;;;;;5045885;28;20467;-78
2023/12/14 03:47:19;;;;;;;14.50;14.20;;;7.70;99.90;;;;;;5049275;28;21054;-79
2023/12/14 03:49:50;;;;;;;14.77;14.40;;;7.70;1.00;;;;;;5050614;28;20475;-78
2023/12/14 03:52:18;;;;;;;14.97;14.57;;;7.80;1.00;;;;;;5062923;28;20461;-80
2023/12/14 03:54:46;;;;;;;14.93;14.50;;;7.80;1.00;;;;;;5048153;28;20472;-80
2023/12/14 03:57:14;;;;;;;14.57;14.17;;;7.80;3.90;;;;;;5050175;28;20447;-79
2023/12/14 03:59:42;;;;;;;15.70;14.90;;;7.80;1.00;;;;;;5049032;28;20525;-79
2023/12/14 04:02:10;;;;;;;14.67;14.27;;;7.80;1.00;;;;;;5051555;28;20578;-80
2023/12/14 04:04:39;;;;;;;14.60;14.20;;;7.80;1.00;;;;;;5051827;28;21200;-79
2023/12/14 04:07:08;;;;;;;14.87;14.30;;;7.80;99.90;;;;;;5048028;28;20451;-79
2023/12/14 04:09:36;;;;;;;14.93;14.53;;;7.80;99.90;;;;;;5051554;28;20528;-78
2023/12/14 04:12:05;;;;;;;15.20;14.60;;;7.90;1.00;;;;;;5051873;28;20487;-78
2023/12/14 04:14:34;;;;;;;14.60;14.20;;;7.90;99.90;;;;;;5053673;28;20456;-78
2023/12/14 04:17:02;;;;;;;15.53;15.00;;;7.90;25.30;;;;;;5047399;28;20464;-78
2023/12/14 04:19:30;;;;;;;15.50;15.00;;;7.80;1.00;;;;;;5050764;28;20451;-79
2023/12/14 04:21:58;;;;;;;16.17;15.47;;;7.90;99.90;;;;;;5052096;28;20958;-79
2023/12/14 04:24:28;;;;;;;15.67;15.07;;;7.80;1.00;;;;;;5053270;28;20459;-80
2023/12/14 04:26:56;;;;;;;15.90;15.33;;;7.80;1.00;;;;;;5046945;28;20462;-79
2023/12/14 04:29:24;;;;;;;17.00;16.30;;;7.80;99.90;;;;;;5050738;28;20470;-79
2023/12/14 04:31:53;;;;;;;16.67;16.07;;;7.80;99.90;;;;;;5048605;28;20489;-79
2023/12/14 04:34:21;;;;;;;17.30;16.30;;;7.90;99.90;;;;;;5047876;28;20448;-78
2023/12/14 04:36:50;;;;;;;16.30;15.67;;;7.80;1.00;;;;;;5046825;28;20463;-78
2023/12/14 04:39:18;;;;;;;17.40;16.70;;;7.80;1.00;;;;;;5051474;28;20456;-79
2023/12/14 04:41:48;;;;;;;18.00;17.30;;;7.80;1.00;;;;;;5054753;28;20482;-79
2023/12/14 04:44:16;;;;;;;16.70;16.07;;;7.80;99.90;;;;;;5052222;28;20448;-78
2023/12/14 04:46:44;;;;;;;16.20;15.60;;;7.80;1.00;;;;;;5043983;28;20960;-78
2023/12/14 04:49:12;;;;;;;16.97;16.27;;;7.80;1.00;;;;;;5051248;28;20471;-78
2023/12/14 04:51:41;;;;;;;17.13;16.43;;;7.90;38.70;;;;;;5052897;28;20598;-78
2023/12/14 04:54:10;;;;;;;17.20;16.40;;;7.90;1.00;;;;;;5052998;28;20440;-78
2023/12/14 04:56:38;;;;;;;16.00;15.50;;;7.80;99.90;;;;;;5054800;28;20451;-78
2023/12/14 04:59:08;;;;;;;16.50;15.97;;;7.80;99.90;;;;;;5054716;28;20459;-79
2023/12/14 05:01:36;;;;;;;16.97;16.17;;;7.90;99.90;;;;;;5050909;28;20472;-79
2023/12/14 05:04:05;;;;;;;17.10;16.50;;;7.90;99.90;;;;;;5049456;28;20459;-79
2023/12/14 05:06:35;;;;;;;16.83;16.23;;;7.90;99.90;;;;;;5052952;28;20448;-79
2023/12/14 05:09:05;;;;;;;17.50;16.70;;;7.90;99.90;;;;;;5054796;28;20466;-79
2023/12/14 05:11:33;;;;;;;17.50;16.80;;;8.00;99.90;;;;;;5052991;28;20547;-79
2023/12/14 05:14:01;;;;;;;17.50;16.70;;;7.90;90.70;;;;;;5060698;28;20448;-85
2023/12/14 05:16:31;;;;;;;18.17;17.37;;;7.90;99.90;;;;;;5058818;28;20487;-83
2023/12/14 05:18:59;;;;;;;17.43;16.67;;;8.00;99.90;;;;;;5059935;28;20466;-84
2023/12/14 05:21:28;;;;;;;18.10;17.40;;;8.00;1.00;;;;;;5048850;28;20486;-79
2023/12/14 05:23:56;;;;;;;18.53;17.73;;;8.10;99.90;;;;;;5053147;28;20463;-80
2023/12/14 05:26:24;;;;;;;18.00;17.27;;;8.10;1.00;;;;;;5049887;28;20444;-80
2023/12/14 05:28:53;;;;;;;19.50;18.50;;;8.00;1.00;;;;;;5055888;28;20440;-80
2023/12/14 05:31:22;;;;;;;19.50;18.50;;;8.00;99.90;;;;;;5052858;28;20479;-79
2023/12/14 05:33:51;;;;;;;20.50;19.47;;;7.90;99.90;;;;;;5052855;28;20801;-80
2023/12/14 05:36:19;;;;;;;19.00;18.00;;;7.90;99.90;;;;;;5050142;28;20486;-80
2023/12/14 05:38:48;;;;;;;18.43;17.43;;;7.90;45.90;;;;;;5055909;28;20547;-79
2023/12/14 05:41:16;;;;;;;19.20;18.23;;;7.90;1.00;;;;;;5052711;28;20589;-79
2023/12/14 05:43:44;;;;;;;18.70;17.80;;;7.90;99.90;;;;;;5055542;28;20463;-80
2023/12/14 05:46:21;;;;;;;18.37;17.50;;;7.90;99.90;;;;;;5045559;28;20574;-78
2023/12/14 05:48:51;;;;;;;19.30;18.40;;;7.90;99.90;;;;;;5050896;28;20566;-78
2023/12/14 05:51:30;;;;;;;18.23;17.43;;;7.90;1.00;;;;;;5053990;28;20484;-79
2023/12/14 05:53:58;;;;;;;17.47;16.70;;;8.00;1.00;;;;;;5046876;28;20488;-80
2023/12/14 05:56:27;;;;;;;17.23;16.57;;;8.00;99.90;;;;;;5052258;28;20508;-79
2023/12/14 05:58:55;;;;;;;16.30;15.80;;;8.00;99.90;;;;;;5050892;28;20455;-80
2023/12/14 06:01:24;;;;;;;16.33;15.73;;;8.00;99.90;;;;;;5052643;28;20468;-79
2023/12/14 06:03:54;;;;;;;16.27;15.67;;;8.00;99.90;;;;;;5049683;28;20862;-79
2023/12/14 06:06:23;;;;;;;16.03;15.47;;;8.00;99.90;;;;;;5051786;28;20471;-79
2023/12/14 06:08:51;;;;;;;17.53;16.77;;;8.10;1.00;;;;;;5051589;28;20459;-80
2023/12/14 06:11:20;;;;;;;15.70;15.13;;;8.00;99.90;;;;;;5050268;28;20486;-80
2023/12/14 06:13:49;;;;;;;16.33;15.63;;;8.10;63.80;;;;;;5052785;28;20447;-79
2023/12/14 06:16:17;;;;;;;15.63;15.13;;;8.00;99.90;;;;;;5044544;28;20456;-79
2023/12/14 06:18:47;;;;;;;15.90;15.40;;;8.00;1.00;;;;;;5049777;28;20459;-80
2023/12/14 06:21:16;;;;;;;15.80;15.30;;;8.00;99.90;;;;;;5047543;28;20495;-79
2023/12/14 06:23:45;;;;;;;15.80;15.20;;;8.00;99.90;;;;;;5049382;28;20445;-78
2023/12/14 06:26:16;;;;;;;15.27;14.73;;;8.00;99.90;;;;;;5052919;28;20463;-81
2023/12/14 06:28:45;;;;;;;15.97;15.37;;;8.00;99.90;;;;;;5047846;28;20456;-80
2023/12/14 06:31:14;;;;;;;15.40;14.80;;;8.00;99.90;;;;;;5052722;28;20468;-79
2023/12/14 06:33:42;;;;;;;16.07;15.47;;;8.00;99.90;;;;;;5050072;28;20521;-80
2023/12/14 06:36:11;;;;;;;16.70;16.00;;;8.00;1.00;;;;;;5050133;28;21237;-79
2023/12/14 06:38:41;;;;;;;16.70;15.70;;;8.00;1.00;;;;;;5048786;28;20455;-80
2023/12/14 06:41:09;;;;;;;16.20;15.57;;;8.00;1.00;;;;;;5053368;28;21269;-80
2023/12/14 06:43:40;;;;;;;16.67;16.00;;;8.00;1.00;;;;;;5053974;28;20452;-80
2023/12/14 06:46:09;;;;;;;16.10;15.60;;;8.00;1.00;;;;;;5052867;28;20450;-79
2023/12/14 06:48:37;;;;;;;16.30;15.70;;;8.10;1.00;;;;;;5043447;28;20551;-79
2023/12/14 06:51:06;;;;;;;17.43;16.63;;;8.10;99.90;;;;;;5052293;28;20491;-79
2023/12/14 06:53:35;;;;;;;16.90;16.20;;;8.10;1.00;;;;;;5054275;28;20455;-80
2023/12/14 06:56:05;;;;;;;16.60;16.00;;;8.10;1.00;;;;;;5053622;28;20469;-79
2023/12/14 06:58:35;;;;;;;16.77;16.07;;;8.10;1.00;;;;;;5051389;28;20443;-80
2023/12/14 07:01:03;;;;;;;17.33;16.63;;;8.10;1.00;;;;;;5051233;28;20475;-79
2023/12/14 07:03:31;;;;;;;16.47;15.90;;;8.10;1.00;;;;;;5052787;28;20464;-79
2023/12/14 07:06:00;;;;;;;16.90;16.30;;;8.10;99.90;;;;;;5049222;28;20471;-80
2023/12/14 07:08:28;;;;;;;17.27;16.50;;;8.10;1.00;;;;;;5053286;28;20466;-81
2023/12/14 07:10:56;;;;;;;17.70;17.00;;;8.10;1.00;;;;;;5052259;28;20495;-79
2023/12/14 07:13:25;;;;;;;18.00;17.20;;;8.10;1.00;;;;;;5050354;28;20855;-79
2023/12/14 07:15:54;;;;;;;16.50;16.00;;;8.10;1.00;;;;;;5052973;28;21220;-80
2023/12/14 07:18:22;;;;;;;17.90;17.23;;;8.10;1.00;;;;;;5051201;28;21087;-80
2023/12/14 07:20:50;;;;;;;17.13;16.57;;;8.20;1.00;;;;;;5052387;28;20480;-79
2023/12/14 07:23:18;;;;;;;16.77;16.27;;;8.10;1.00;;;;;;5054206;28;20455;-79
2023/12/14 07:25:46;;;;;;;16.03;15.47;;;8.10;1.00;;;;;;5052639;28;20459;-81
2023/12/14 07:28:15;;;;;;;16.10;15.60;;;8.10;99.90;;;;;;5046977;28;20463;-79
2023/12/14 07:30:46;;;;;;;16.17;15.67;;;8.10;1.00;;;;;;5050064;28;20510;-79
2023/12/14 07:33:14;;;;;;;15.90;15.50;;;8.10;1.00;;;;;;5050813;28;20461;-80
2023/12/14 07:35:43;;;;;;;16.40;15.80;;;8.10;99.90;;;;;;5054602;28;20829;-80
2023/12/14 07:38:12;;;;;;;16.60;16.00;;;8.10;1.00;;;;;;5052480;28;20456;-79
2023/12/14 07:40:41;;;;;;;16.97;16.37;;;8.10;1.00;;;;;;5054020;28;20542;-79
2023/12/14 07:43:09;;;;;;;16.93;16.23;;;8.20;1.00;;;;;;5052765;28;20454;-79
2023/12/14 07:45:37;;;;;;;16.60;16.10;;;8.20;1.00;;;;;;5050443;28;20459;-80
2023/12/14 07:48:07;;;;;;;17.20;16.50;;;8.20;1.00;;;;;;5049178;28;20460;-82
2023/12/14 07:50:35;;;;;;;16.67;16.17;;;8.20;1.00;;;;;;5044170;28;20484;-82
2023/12/14 07:53:04;;;;;;;17.10;16.50;;;8.20;1.00;;;;;;5057670;28;20545;-82
2023/12/14 07:55:32;;;;;;;17.17;16.37;;;8.30;1.00;;;;;;5052176;28;20463;-82
2023/12/14 07:58:00;;;;;;;17.03;16.43;;;8.30;1.00;;;;;;5050975;28;20451;-83
2023/12/14 08:00:28;;;;;;;16.97;16.27;;;8.30;1.00;;;;;;5048824;28;20595;-83
2023/12/14 08:02:57;;;;;;;16.30;15.70;;;8.30;99.90;;;;;;5049547;28;20576;-81
2023/12/14 08:05:26;;;;;;;19.10;18.40;;;8.30;99.90;;;;;;5058186;28;20550;-81
2023/12/14 08:07:55;;;;;;;18.23;17.50;;;8.30;1.00;;;;;;5037054;28;20454;-82
2023/12/14 08:10:23;;;;;;;18.73;17.67;;;8.20;99.90;;;;;;5053440;28;20563;-82
2023/12/14 08:12:52;;;;;;;17.20;16.60;;;8.20;1.00;;;;;;5056919;28;20456;-82
2023/12/14 08:15:20;;;;;;;16.93;16.23;;;8.30;1.00;;;;;;5052346;28;20464;-82
2023/12/14 08:17:48;;;;;;;17.10;16.40;;;8.30;99.90;;;;;;5047767;28;20550;-79
2023/12/14 08:20:16;;;;;;;16.80;16.10;;;8.30;1.00;;;;;;5048021;28;20495;-79
2023/12/14 08:22:46;;;;;;;17.00;16.40;;;8.40;1.00;;;;;;5047684;28;20458;-80
2023/12/14 08:25:16;;;;;;;17.73;16.93;;;8.40;99.90;;;;;;5044422;28;20451;-80
2023/12/14 08:27:44;;;;;;;17.07;16.27;;;8.50;99.90;;;;;;5044613;28;20463;-79
2023/12/14 08:30:13;;;;;;;16.40;15.83;;;8.40;99.90;;;;;;5039186;28;20455;-79
2023/12/14 08:32:42;;;;;;;16.63;16.00;;;8.40;1.00;;;;;;5036075;28;20865;-78
2023/12/14 08:35:11;;;;;;;16.30;15.70;;;8.40;99.90;;;;;;5043718;28;20453;-80
2023/12/14 08:37:39;;;;;;;16.70;16.00;;;8.40;99.90;;;;;;5041753;28;20458;-78
2023/12/14 08:40:10;;;;;;;16.87;16.23;;;8.40;1.00;;;;;;5035999;28;20890;-79
2023/12/14 08:42:38;;;;;;;17.20;16.60;;;8.40;99.90;;;;;;5034763;28;20518;-79
2023/12/14 08:45:11;;;;;;;17.70;17.00;;;8.50;96.70;;;;;;5039325;28;20866;-79
2023/12/14 08:47:39;;;;;;;16.80;16.20;;;8.50;1.00;;;;;;5040316;28;20964;-80
2023/12/14 08:50:08;;;;;;;19.03;18.03;;;8.60;99.90;;;;;;5055881;28;20444;-79
2023/12/14 08:52:37;;;;;;;17.40;16.70;;;8.60;99.90;;;;;;5052953;28;20482;-79
2023/12/14 08:55:07;;;;;;;18.20;17.30;;;8.60;99.90;;;;;;5051914;28;20501;-79
2023/12/14 08:57:37;;;;;;;18.13;17.27;;;8.60;99.90;;;;;;5050625;28;20475;-79
2023/12/14 09:00:06;;;;;;;18.23;17.53;;;8.70;99.90;;;;;;5050311;28;20464;-79
2023/12/14 09:02:34;;;;;;;18.00;17.30;;;8.60;1.00;;;;;;5054088;28;20571;-79
2023/12/14 09:05:04;;;;;;;19.23;18.23;;;8.60;88.40;;;;;;5054307;28;20443;-80
2023/12/14 09:07:32;;;;;;;18.50;17.70;;;8.60;99.90;;;;;;5054017;28;20539;-79
2023/12/14 09:10:00;;;;;;;18.40;17.50;;;8.60;99.90;;;;;;5053793;28;20454;-79
2023/12/14 09:12:29;;;;;;;17.70;16.83;;;8.60;99.90;;;;;;5055852;28;20658;-80
2023/12/14 09:14:58;;;;;;;18.33;17.53;;;8.70;99.90;;;;;;5051517;28;20443;-79
2023/12/14 09:17:32;;;;;;;18.03;17.20;;;8.70;99.90;;;;;;5049504;28;20972;-79
2023/12/14 09:20:05;;;;;;;18.53;17.63;;;8.70;99.90;;;;;;5055313;28;20476;-80
2023/12/14 09:22:34;;;;;;;17.67;16.97;;;8.70;99.90;;;;;;5054633;28;20440;-79
2023/12/14 09:25:03;;;;;;;17.60;17.00;;;8.60;1.00;;;;;;5053569;28;20460;-78
2023/12/14 09:27:31;;;;;;;17.70;16.70;;;8.70;90.60;;;;;;5049987;28;20463;-79
2023/12/14 09:30:01;;;;;;;18.33;17.50;;;8.60;99.90;;;;;;5050496;28;20893;-79
2023/12/14 09:32:29;;;;;;;18.57;17.77;;;8.70;99.90;;;;;;5047206;28;20467;-79
2023/12/14 09:34:58;;;;;;;18.40;17.70;;;8.70;1.00;;;;;;5052236;28;20455;-79
2023/12/14 09:37:26;;;;;;;18.70;17.70;;;8.70;99.90;;;;;;5055023;28;20447;-79
2023/12/14 09:39:54;;;;;;;18.80;17.83;;;8.70;1.00;;;;;;5056009;28;20550;-79
2023/12/14 09:42:23;;;;;;;18.20;17.40;;;8.70;99.90;;;;;;5054354;28;20490;-78
2023/12/14 09:44:53;;;;;;;19.30;18.40;;;8.80;99.90;;;;;;5050002;28;20463;-78
2023/12/14 09:47:25;;;;;;;19.63;18.60;;;8.80;99.90;;;;;;5049446;28;21103;-78
2023/12/14 09:49:54;;;;;;;19.57;18.47;;;8.80;1.00;;;;;;5047553;28;20454;-80
2023/12/14 09:52:22;;;;;;;19.60;18.70;;;8.80;1.00;;;;;;5049479;28;20624;-79
2023/12/14 09:54:50;;;;;;;19.67;18.57;;;8.90;1.00;;;;;;5048308;28;20453;-79
2023/12/14 09:57:22;;;;;;;19.03;18.17;;;8.90;1.00;;;;;;5046137;28;20910;-79
2023/12/14 09:59:53;;;;;;;18.40;17.70;;;9.00;1.00;;;;;;5054251;28;20455;-79
2023/12/14 10:02:26;;;;;;;18.40;17.60;;;9.00;99.90;;;;;;5051037;28;20472;-79
2023/12/14 10:04:54;;;;;;;18.30;17.60;;;9.00;97.20;;;;;;5051303;28;20456;-78
2023/12/14 10:07:23;;;;;;;18.77;17.77;;;9.00;99.90;;;;;;5053737;28;20451;-80
2023/12/14 10:09:52;;;;;;;17.90;17.30;;;9.10;99.90;;;;;;5051660;28;20470;-79
2023/12/14 10:12:23;;;;;;;18.03;17.40;;;9.10;99.90;;;;;;5050127;28;20475;-79
2023/12/14 10:15:01;;;;;;;17.47;16.87;;;9.10;1.00;;;;;;5050557;28;20451;-80
2023/12/14 10:17:32;;;;;;;17.13;16.53;;;9.20;99.90;;;;;;5051542;28;20792;-80
2023/12/14 10:20:04;;;;;;;16.67;16.07;;;9.20;1.00;;;;;;5047449;28;20480;-78
2023/12/14 10:22:32;;;;;;;16.87;16.17;;;9.10;99.90;;;;;;5047352;28;21301;-78
2023/12/14 10:25:01;;;;;;;18.27;17.40;;;9.20;99.90;;;;;;5047890;28;20870;-79
2023/12/14 10:27:31;;;;;;;17.93;17.03;;;9.10;99.90;;;;;;5050825;28;20857;-79
2023/12/14 10:30:00;;;;;;;17.47;16.77;;;9.20;1.00;;;;;;5053881;28;20452;-78
2023/12/14 10:32:29;;;;;;;18.13;17.43;;;9.20;1.00;;;;;;5049514;28;20480;-79
2023/12/14 10:34:59;;;;;;;18.07;17.37;;;9.30;99.90;;;;;;5054146;28;20456;-80
2023/12/14 10:37:28;;;;;;;17.60;16.90;;;9.30;49.10;;;;;;5052330;28;20456;-79
2023/12/14 10:39:57;;;;;;;17.40;16.70;;;9.40;99.90;;;;;;5055432;28;21080;-80
2023/12/14 10:42:28;;;;;;;18.00;17.20;;;9.50;99.90;;;;;;5055104;28;21119;-79
2023/12/14 10:44:58;;;;;;;19.23;18.23;;;9.70;99.90;;;;;;5053347;28;20531;-79
2023/12/14 10:47:46;;;;;;;18.23;17.53;;;9.70;1.00;;;;;;5050318;28;20459;-80
2023/12/14 10:50:19;;;;;;;19.70;18.60;;;9.80;99.90;;;;;;5052176;28;20456;-80
2023/12/14 10:52:48;;;;;;;18.63;17.73;;;9.80;1.00;;;;;;5051068;28;20482;-80
2023/12/14 10:55:24;;;;;;;17.50;16.90;;;9.80;99.90;;;;;;5053966;28;20440;-80
2023/12/14 10:57:53;;;;;;;18.40;17.53;;;9.80;99.90;;;;;;5052028;28;20462;-80
2023/12/14 11:00:21;;;;;;;18.63;17.83;;;9.70;99.90;;;;;;5064448;28;20483;-79
2023/12/14 11:02:49;;;;;;;17.03;16.40;;;9.70;1.00;;;;;;5049588;28;20471;-80
2023/12/14 11:05:29;;;;;;;17.47;16.77;;;9.80;1.00;;;;;;5053446;28;20491;-79
2023/12/14 11:08:03;;;;;;;17.00;16.40;;;9.80;99.90;;;;;;5048636;28;20465;-80
2023/12/14 11:10:38;;;;;;;17.97;17.27;;;10.00;1.00;;;;;;5065490;28;20474;-79
2023/12/14 11:13:13;;;;;;;18.47;17.63;;;10.50;99.90;;;;;;5067027;28;20476;-80
2023/12/14 11:15:49;;;;;;;19.07;18.37;;;11.00;1.00;;;;;;5057472;28;20504;-79
2023/12/14 11:18:26;;;;;;;18.30;17.60;;;11.60;1.00;;;;;;5044252;28;20464;-79
2023/12/14 11:20:58;;;;;;;18.67;17.80;;;12.00;99.90;;;;;;5039225;28;20463;-79
2023/12/14 11:23:38;;;;;;;18.57;17.87;;;12.30;99.90;;;;;;5031838;28;20444;-79
2023/12/14 11:26:10;;;;;;;18.87;17.73;;;12.00;1.00;;;;;;5032087;28;20440;-79
2023/12/14 11:28:41;;;;;;;18.93;18.13;;;11.70;1.00;;;;;;5024110;28;20460;-80
2023/12/14 11:31:12;;;;;;;17.60;16.97;;;11.30;1.00;;;;;;5027365;28;20538;-78
2023/12/14 11:33:40;;;;;;;17.40;16.80;;;11.00;1.00;;;;;;5020735;28;21657;-79
2023/12/14 11:36:14;;;;;;;15.80;15.40;;;10.80;1.00;;;;;;5019157;28;20461;-79
2023/12/14 11:38:43;;;;;;;15.90;15.40;;;10.70;99.90;;;;;;5030853;28;20513;-78
2023/12/14 11:41:14;;;;;;;15.20;14.70;;;10.60;99.90;;;;;;5021081;28;21481;-79
2023/12/14 11:43:44;;;;;;;15.50;15.00;;;10.60;99.90;;;;;;5021100;28;20452;-79
2023/12/14 11:46:13;;;;;;;15.50;14.90;;;10.50;99.90;;;;;;5025928;28;21038;-79
2023/12/14 11:48:44;;;;;;;15.10;14.70;;;10.50;99.90;;;;;;5019217;28;20527;-79
2023/12/14 11:51:14;;;;;;;15.07;14.67;;;10.40;99.90;;;;;;5016389;28;20564;-80
2023/12/14 11:53:45;;;;;;;15.70;15.20;;;10.20;99.90;;;;;;5023854;28;20544;-80
2023/12/14 11:56:16;;;;;;;15.27;14.87;;;10.20;99.90;;;;;;5026317;28;21063;-79
2023/12/14 11:58:45;;;;;;;14.83;14.43;;;10.10;99.90;;;;;;5019923;28;20464;-79
2023/12/14 12:01:15;;;;;;;15.00;14.57;;;10.00;99.90;;;;;;5020209;28;20480;-79
2023/12/14 12:03:44;;;;;;;14.20;13.90;;;9.90;99.90;;;;;;5030656;28;20464;-80
2023/12/14 12:06:23;;;;;;;14.60;14.20;;;9.80;99.90;;;;;;5026706;28;20457;-79
2023/12/14 12:08:53;;;;;;;14.23;13.80;;;9.70;99.90;;;;;;5029110;28;21243;-80
2023/12/14 12:11:23;;;;;;;14.60;14.10;;;9.70;1.00;;;;;;5030102;28;20899;-79
2023/12/14 12:13:52;;;;;;;14.47;14.03;;;9.70;99.90;;;;;;5027043;28;20484;-80
2023/12/14 12:16:21;;;;;;;14.90;14.50;;;9.80;1.00;;;;;;5023774;28;20465;-78
2023/12/14 12:18:50;;;;;;;14.60;14.20;;;9.80;65.70;;;;;;5018468;28;20464;-80
2023/12/14 12:21:19;;;;;;;14.37;13.97;;;9.80;1.00;;;;;;5024008;28;20477;-78
2023/12/14 12:23:48;;;;;;;14.83;14.43;;;9.90;1.00;;;;;;5024599;28;20472;-80
2023/12/14 12:26:17;;;;;;;14.90;14.40;;;9.90;99.90;;;;;;5025183;28;20459;-80
2023/12/14 12:28:47;;;;;;;15.10;14.60;;;9.80;99.90;;;;;;5023628;28;20455;-80
2023/12/14 12:31:16;;;;;;;14.73;14.33;;;9.80;99.90;;;;;;5029546;28;20465;-79
2023/12/14 12:33:44;;;;;;;15.17;14.77;;;9.80;99.90;;;;;;5028925;28;20484;-79
2023/12/14 12:36:13;;;;;;;15.30;14.80;;;9.80;1.00;;;;;;5016779;28;20877;-80
2023/12/14 12:38:41;;;;;;;15.90;15.30;;;9.80;1.00;;;;;;5023178;28;20457;-80
2023/12/14 12:41:10;;;;;;;15.40;14.90;;;9.80;1.00;;;;;;5021514;28;20479;-79
2023/12/14 12:43:39;;;;;;;15.93;15.13;;;9.80;1.00;;;;;;5025899;28;20444;-79
2023/12/14 12:46:07;;;;;;;15.47;15.00;;;9.80;1.00;;;;;;5032776;28;20453;-80
2023/12/14 12:48:36;;;;;;;16.80;16.20;;;9.80;3.80;;;;;;5031110;28;20458;-79
2023/12/14 12:51:05;;;;;;;16.10;15.40;;;9.80;18.80;;;;;;5029796;28;21080;-82